Weather forecast for Bozoy (Бозой)

Russia, 588 m
N53.011, E104.880


Sounding

Red line — air temperature ˚C.
Blue line — thermal bubble temperature ˚C.
Green line — dew point temperature ˚C.
Wind speed is in meters per second.

Table forecast

GFS 0.25˚ model

temp. wind gust humid. clouds prec. press. hpbl
Sat18 00:00 -15 52.0 ne 1 2 78 100 0.0 1023 20
03:00 -14 56.0 ne 2 2 78 100 0.0 1021 20
06:00 -16 75.0 ene 1 1 79 88 0.0 1020 20
09:00 -18 93.0 e 1 2 85 52 0.0 1019 20
12:00 -16 96.0 e 1 1 88 69 0.0 1017 20
15:00 -12 64.0 ene 1 1 88 81 0.0 1015 62
18:00 -13 5.0 n 1 1 89 100 0.0 1015 20
21:00 -13 240.0 wsw 2 2 94 100 0.0 1017 20
 
Sun19 00:00 -13 239.0 wsw 2 2 93 100 0.1 1018 23
03:00 -14 234.0 sw 2 3 90 100 0.1 1018 21
06:00 -13 301.0 wnw 5 14 85 95 0.1 1021 879
09:00 -19 296.0 wnw 5 14 87 72 0.1 1027 411
12:00 -20 290.0 wnw 4 12 89 66 0.0 1030 528
15:00 -17 255.0 wsw 2 3 84 33 0.0 1029 326
18:00 -21 205.0 ssw 2 3 99 0 0.0 1027 20
21:00 -24 80.0 e 1 2 100 17 0.0 1025 20
 
Mon20 00:00 -23 59.0 ene 3 4 91 33 0.0 1022 38
03:00 -23 58.0 ene 3 4 77 40 0.0 1018 29
06:00 -23 63.0 ene 3 3 75 58 0.0 1016 23
09:00 -23 78.0 ene 2 2 82 62 0.0 1016 20
12:00 -20 72.0 ene 1 2 92 57 0.0 1016 21
15:00 -16 98.0 e 1 2 87 59 0.0 1015 108
18:00 -19 91.0 e 1 1 88 100 0.0 1016 20
21:00 -20 65.0 ene 0 0 88 96 0.0 1019 20
 
Tue21 00:00 -19 67.0 ene 1 1 86 100 0.0 1019 20
03:00 -21 68.0 ene 1 1 96 62 0.0 1020 20
06:00 -20 60.0 ene 2 2 94 0 0.0 1019 20
09:00 -20 58.0 ene 2 2 91 34 0.0 1019 20
12:00 -16 108.0 ese 2 2 87 100 0.0 1020 40
15:00 -13 268.0 w 1 2 92 100 0.1 1019 233
18:00 -18 182.0 s 1 1 100 91 0.0 1019 20
21:00 -21 91.0 e 1 2 100 86 0.1 1020 20
 
Wed22 00:00 -20 55.0 ne 2 3 98 100 0.0 1017 21
03:00 -20 72.0 ene 2 2 88 100 0.0 1016 20
06:00 -19 36.0 ne 0 0 89 99 0.0 1015 20
09:00 -18 287.0 wnw 1 1 88 100 0.0 1018 20
12:00 -15 323.0 nw 3 10 89 100 0.0 1022 512
15:00 -16 303.0 wnw 6 10 85 100 0.1 1027 994
18:00 -22 295.0 wnw 4 4 86 92 0.0 1033 71
21:00 -28 304.0 nw 2 2 95 46 0.0 1041 19
 

0.014 s